RYR916 LIPR-EGPH
Flight info
| Callsign | RYR916 |
|---|---|
| Flight time | 2h 26m |
| Altitude | 36000 |
| Route | PELEG DCT RESIA DCT NATOR DCT BITBU DCT BREDA DCT MIMVA L602 EMLON M79 TENDO DCT AGPED |
| Aircraft | B738/M-SDE2E3FGHIRWXY/LB1 |
Departure
| Time | 2026-04-21 10:35 |
|---|---|
| Airport | Federico Fellini International Airport (LIPR) |
Arrival
| Time | 2026-04-21 13:01 |
|---|---|
| Airport | Edinburgh Airport (EGPH) |
| Time | Latitude | Longitude | Altitude | Speed | Heading |
|---|---|---|---|---|---|
| 2026-04-21 10:16 | 44.02189 | 12.61902 | 48 ft | 0 kts | 38° |
| 2026-04-21 10:26 | 44.02188 | 12.61902 | 48 ft | 0 kts | 38° |
| 2026-04-21 10:27 | 44.02188 | 12.61901 | 48 ft | 0 kts | 38° |
| 2026-04-21 10:29 | 44.02187 | 12.61900 | 48 ft | 2 kts | 38° |
| 2026-04-21 10:29 | 44.02173 | 12.61885 | 21 ft | 3 kts | 38° |
| 2026-04-21 10:29 | 44.02159 | 12.61870 | 47 ft | 2 kts | 38° |
| 2026-04-21 10:29 | 44.02146 | 12.61855 | 48 ft | 2 kts | 38° |
| 2026-04-21 10:30 | 44.02139 | 12.61848 | 48 ft | 0 kts | 38° |
| 2026-04-21 10:30 | 44.02150 | 12.61844 | 48 ft | 5 kts | 338° |
| 2026-04-21 10:30 | 44.02183 | 12.61769 | 48 ft | 15 kts | 281° |
| 2026-04-21 10:31 | 44.02112 | 12.61654 | 47 ft | 19 kts | 215° |
| 2026-04-21 10:31 | 44.02091 | 12.61497 | 46 ft | 21 kts | 309° |
| 2026-04-21 10:31 | 44.02183 | 12.61325 | 46 ft | 22 kts | 306° |
| 2026-04-21 10:31 | 44.02274 | 12.61154 | 45 ft | 22 kts | 307° |
| 2026-04-21 10:32 | 44.02372 | 12.61000 | 44 ft | 21 kts | 313° |
| 2026-04-21 10:32 | 44.02452 | 12.60833 | 42 ft | 20 kts | 307° |
| 2026-04-21 10:32 | 44.02536 | 12.60678 | 41 ft | 20 kts | 306° |
| 2026-04-21 10:32 | 44.02617 | 12.60526 | 42 ft | 19 kts | 305° |
| 2026-04-21 10:33 | 44.02699 | 12.60385 | 41 ft | 19 kts | 312° |
| 2026-04-21 10:33 | 44.02784 | 12.60256 | 40 ft | 18 kts | 309° |
| 2026-04-21 10:33 | 44.02839 | 12.60137 | 40 ft | 13 kts | 275° |
| 2026-04-21 10:33 | 44.02780 | 12.60051 | 40 ft | 13 kts | 215° |
| 2026-04-21 10:34 | 44.02710 | 12.59981 | 38 ft | 12 kts | 187° |
| 2026-04-21 10:34 | 44.02666 | 12.60041 | 40 ft | 9 kts | 125° |
| 2026-04-21 10:34 | 44.02533 | 12.60291 | 40 ft | 71 kts | 127° |
| 2026-04-21 10:34 | 44.02072 | 12.61116 | 45 ft | 143 kts | 127° |
| 2026-04-21 10:35 | 44.01348 | 12.62410 | 266 ft | 188 kts | 126° |
| 2026-04-21 10:35 | 44.00493 | 12.63918 | 778 ft | 210 kts | 131° |
| 2026-04-21 10:35 | 43.99268 | 12.65148 | 1240 ft | 221 kts | 146° |
| 2026-04-21 10:35 | 43.97984 | 12.66361 | 1695 ft | 227 kts | 143° |
| 2026-04-21 10:36 | 43.96669 | 12.67701 | 2167 ft | 243 kts | 142° |
| 2026-04-21 10:36 | 43.95271 | 12.69163 | 2608 ft | 256 kts | 141° |
| 2026-04-21 10:36 | 43.94074 | 12.70988 | 3038 ft | 259 kts | 114° |
| 2026-04-21 10:36 | 43.93775 | 12.73413 | 3514 ft | 258 kts | 82° |
| 2026-04-21 10:37 | 43.94395 | 12.75729 | 3972 ft | 259 kts | 53° |
| 2026-04-21 10:37 | 43.95739 | 12.77363 | 4445 ft | 260 kts | 26° |
| 2026-04-21 10:37 | 43.97492 | 12.77905 | 4916 ft | 262 kts | 357° |
| 2026-04-21 10:37 | 43.99231 | 12.77193 | 5360 ft | 264 kts | 328° |
| 2026-04-21 10:38 | 44.00499 | 12.75372 | 5810 ft | 266 kts | 297° |
| 2026-04-21 10:38 | 44.00998 | 12.72910 | 6308 ft | 267 kts | 277° |
| 2026-04-21 10:38 | 44.01139 | 12.70336 | 6761 ft | 269 kts | 274° |
| 2026-04-21 10:38 | 44.01240 | 12.67735 | 7192 ft | 270 kts | 274° |
| 2026-04-21 10:39 | 44.01355 | 12.65136 | 7649 ft | 270 kts | 274° |
| 2026-04-21 10:39 | 44.01483 | 12.62526 | 8166 ft | 272 kts | 274° |
| 2026-04-21 10:39 | 44.01817 | 12.59910 | 8638 ft | 277 kts | 287° |
| 2026-04-21 10:39 | 44.02426 | 12.57402 | 9038 ft | 272 kts | 290° |
| 2026-04-21 10:40 | 44.03073 | 12.54945 | 9499 ft | 272 kts | 290° |
| 2026-04-21 10:40 | 44.03720 | 12.52455 | 9983 ft | 275 kts | 289° |
| 2026-04-21 10:40 | 44.04359 | 12.49961 | 10406 ft | 276 kts | 289° |
| 2026-04-21 10:40 | 44.04994 | 12.47436 | 10844 ft | 275 kts | 289° |
| 2026-04-21 10:41 | 44.05617 | 12.44923 | 11290 ft | 274 kts | 289° |
| 2026-04-21 10:41 | 44.06233 | 12.42415 | 11739 ft | 274 kts | 289° |
| 2026-04-21 10:41 | 44.06845 | 12.39910 | 12195 ft | 274 kts | 289° |
| 2026-04-21 10:41 | 44.07459 | 12.37390 | 12678 ft | 278 kts | 288° |
| 2026-04-21 10:42 | 44.08093 | 12.34781 | 13194 ft | 293 kts | 288° |
| 2026-04-21 10:42 | 44.08765 | 12.32025 | 13700 ft | 308 kts | 288° |
| 2026-04-21 10:42 | 44.09466 | 12.29134 | 14155 ft | 323 kts | 288° |
| 2026-04-21 10:42 | 44.10196 | 12.26121 | 14588 ft | 335 kts | 288° |
| 2026-04-21 10:43 | 44.10952 | 12.22999 | 15040 ft | 346 kts | 288° |
| 2026-04-21 10:43 | 44.11731 | 12.19777 | 15505 ft | 356 kts | 288° |
| 2026-04-21 10:43 | 44.12530 | 12.16467 | 15963 ft | 366 kts | 288° |
| 2026-04-21 10:43 | 44.13348 | 12.13075 | 16431 ft | 374 kts | 288° |
| 2026-04-21 10:44 | 44.14182 | 12.09610 | 16900 ft | 381 kts | 288° |
| 2026-04-21 10:44 | 44.15031 | 12.06079 | 17399 ft | 388 kts | 288° |
| 2026-04-21 10:44 | 44.15893 | 12.02488 | 17852 ft | 394 kts | 288° |
| 2026-04-21 10:44 | 44.16765 | 11.98851 | 18354 ft | 399 kts | 288° |
| 2026-04-21 10:45 | 44.17647 | 11.95165 | 18788 ft | 403 kts | 288° |
| 2026-04-21 10:45 | 44.18532 | 11.91456 | 19205 ft | 405 kts | 288° |
| 2026-04-21 10:45 | 44.19420 | 11.87734 | 19632 ft | 405 kts | 289° |
| 2026-04-21 10:45 | 44.20309 | 11.84006 | 20086 ft | 406 kts | 289° |
| 2026-04-21 10:46 | 44.21197 | 11.80268 | 20527 ft | 406 kts | 289° |
| 2026-04-21 10:46 | 44.22241 | 11.76622 | 20959 ft | 407 kts | 300° |
| 2026-04-21 10:46 | 44.23996 | 11.73526 | 21454 ft | 408 kts | 312° |
| 2026-04-21 10:46 | 44.26185 | 11.70975 | 21907 ft | 414 kts | 324° |
| 2026-04-21 10:47 | 44.28712 | 11.69007 | 22412 ft | 417 kts | 328° |
| 2026-04-21 10:47 | 44.31303 | 11.67156 | 22885 ft | 418 kts | 329° |
| 2026-04-21 10:47 | 44.33906 | 11.65335 | 23371 ft | 419 kts | 329° |
| 2026-04-21 10:47 | 44.36513 | 11.63511 | 23819 ft | 418 kts | 329° |
| 2026-04-21 10:48 | 44.39108 | 11.61681 | 24234 ft | 418 kts | 329° |
| 2026-04-21 10:48 | 44.41666 | 11.59859 | 24674 ft | 418 kts | 328° |
| 2026-04-21 10:48 | 44.44249 | 11.58005 | 25106 ft | 417 kts | 328° |
| 2026-04-21 10:48 | 44.46827 | 11.56144 | 25550 ft | 417 kts | 328° |
| 2026-04-21 10:49 | 44.49403 | 11.54277 | 25996 ft | 417 kts | 328° |
| 2026-04-21 10:49 | 44.51976 | 11.52408 | 26441 ft | 416 kts | 328° |
| 2026-04-21 10:49 | 44.54543 | 11.50540 | 26903 ft | 415 kts | 328° |
| 2026-04-21 10:49 | 44.57098 | 11.48680 | 27366 ft | 414 kts | 328° |
| 2026-04-21 10:50 | 44.59651 | 11.46819 | 27837 ft | 412 kts | 328° |
| 2026-04-21 10:50 | 44.62192 | 11.44965 | 28357 ft | 411 kts | 328° |
| 2026-04-21 10:50 | 44.64721 | 11.43118 | 28844 ft | 409 kts | 328° |
| 2026-04-21 10:50 | 44.67245 | 11.41273 | 29335 ft | 408 kts | 328° |
| 2026-04-21 10:51 | 44.69754 | 11.39437 | 29830 ft | 406 kts | 328° |
| 2026-04-21 10:51 | 44.72254 | 11.37606 | 30299 ft | 404 kts | 328° |
| 2026-04-21 10:51 | 44.74740 | 11.35784 | 30734 ft | 402 kts | 328° |
| 2026-04-21 10:51 | 44.77209 | 11.33972 | 31163 ft | 400 kts | 328° |
| 2026-04-21 10:52 | 44.79668 | 11.32166 | 31637 ft | 397 kts | 328° |
| 2026-04-21 10:52 | 44.82115 | 11.30367 | 32082 ft | 395 kts | 328° |
| 2026-04-21 10:52 | 44.84540 | 11.28582 | 32576 ft | 392 kts | 327° |
| 2026-04-21 10:52 | 44.86952 | 11.26806 | 33043 ft | 389 kts | 327° |
| 2026-04-21 10:53 | 44.89344 | 11.25043 | 33523 ft | 386 kts | 327° |
| 2026-04-21 10:53 | 44.91715 | 11.23293 | 34014 ft | 383 kts | 327° |
| 2026-04-21 10:53 | 44.94067 | 11.21555 | 34427 ft | 380 kts | 327° |
| 2026-04-21 10:53 | 44.96397 | 11.19832 | 34844 ft | 376 kts | 327° |
| 2026-04-21 10:54 | 44.98706 | 11.18124 | 35280 ft | 373 kts | 327° |
| 2026-04-21 10:54 | 45.00988 | 11.16433 | 35694 ft | 369 kts | 327° |
| 2026-04-21 10:54 | 45.03254 | 11.14753 | 35966 ft | 370 kts | 327° |
| 2026-04-21 10:55 | 45.07887 | 11.11302 | 35977 ft | 382 kts | 327° |
| 2026-04-21 10:55 | 45.12659 | 11.07745 | 35984 ft | 394 kts | 327° |
| 2026-04-21 10:56 | 45.17574 | 11.04080 | 35977 ft | 404 kts | 327° |
| 2026-04-21 10:56 | 45.22611 | 11.00318 | 35974 ft | 413 kts | 328° |
| 2026-04-21 10:57 | 45.27742 | 10.96480 | 35969 ft | 421 kts | 328° |
| 2026-04-21 10:57 | 45.32909 | 10.92608 | 35992 ft | 424 kts | 328° |
| 2026-04-21 10:58 | 45.38108 | 10.88706 | 35979 ft | 421 kts | 327° |
| 2026-04-21 10:58 | 45.43280 | 10.84814 | 35993 ft | 420 kts | 327° |
| 2026-04-21 10:59 | 45.48445 | 10.80915 | 36000 ft | 421 kts | 328° |
| 2026-04-21 10:59 | 45.53622 | 10.76998 | 35993 ft | 422 kts | 328° |
| 2026-04-21 11:00 | 45.58811 | 10.73066 | 35994 ft | 423 kts | 327° |
| 2026-04-21 11:00 | 45.64003 | 10.69123 | 35992 ft | 423 kts | 327° |
| 2026-04-21 11:01 | 45.69193 | 10.65173 | 35994 ft | 423 kts | 328° |
| 2026-04-21 11:01 | 45.74388 | 10.61210 | 35982 ft | 424 kts | 328° |
| 2026-04-21 11:02 | 45.82183 | 10.55247 | 35977 ft | 424 kts | 327° |
| 2026-04-21 11:02 | 45.87379 | 10.51263 | 35968 ft | 423 kts | 327° |
| 2026-04-21 11:03 | 45.92577 | 10.47271 | 35955 ft | 425 kts | 328° |
| 2026-04-21 11:03 | 45.97773 | 10.43271 | 35965 ft | 424 kts | 328° |
| 2026-04-21 11:04 | 46.02968 | 10.39260 | 35952 ft | 423 kts | 328° |
| 2026-04-21 11:04 | 46.08153 | 10.35253 | 35927 ft | 423 kts | 327° |
| 2026-04-21 11:05 | 46.13340 | 10.31234 | 35945 ft | 423 kts | 327° |
| 2026-04-21 11:05 | 46.18514 | 10.27215 | 35929 ft | 422 kts | 327° |
| 2026-04-21 11:06 | 46.23676 | 10.23194 | 35950 ft | 422 kts | 327° |
| 2026-04-21 11:06 | 46.28801 | 10.19192 | 35979 ft | 416 kts | 327° |
| 2026-04-21 11:07 | 46.33928 | 10.15189 | 35961 ft | 421 kts | 327° |
| 2026-04-21 11:07 | 46.39094 | 10.11136 | 35989 ft | 423 kts | 327° |
| 2026-04-21 11:08 | 46.44262 | 10.07087 | 35972 ft | 421 kts | 327° |
| 2026-04-21 11:08 | 46.49379 | 10.02904 | 36001 ft | 422 kts | 323° |
| 2026-04-21 11:09 | 46.54252 | 9.98147 | 36012 ft | 421 kts | 322° |
| 2026-04-21 11:09 | 46.59077 | 9.93311 | 35998 ft | 422 kts | 322° |
| 2026-04-21 11:10 | 46.63925 | 9.88486 | 35999 ft | 422 kts | 322° |
| 2026-04-21 11:10 | 46.68787 | 9.83675 | 35984 ft | 423 kts | 322° |
| 2026-04-21 11:11 | 46.73656 | 9.78858 | 36000 ft | 422 kts | 322° |
| 2026-04-21 11:11 | 46.78509 | 9.74051 | 36013 ft | 422 kts | 322° |
| 2026-04-21 11:12 | 46.83379 | 9.69214 | 35997 ft | 424 kts | 322° |
| 2026-04-21 11:12 | 46.88207 | 9.64409 | 36003 ft | 422 kts | 322° |
| 2026-04-21 11:13 | 46.93051 | 9.59577 | 36018 ft | 421 kts | 322° |
| 2026-04-21 11:13 | 46.97890 | 9.54737 | 36019 ft | 422 kts | 322° |
| 2026-04-21 11:14 | 47.01923 | 9.50696 | 36042 ft | 423 kts | 322° |
| 2026-04-21 11:14 | 47.06784 | 9.45816 | 36024 ft | 423 kts | 322° |
| 2026-04-21 11:15 | 47.11641 | 9.40928 | 36056 ft | 423 kts | 322° |
| 2026-04-21 11:15 | 47.16449 | 9.36078 | 36044 ft | 424 kts | 322° |
| 2026-04-21 11:16 | 47.21313 | 9.31162 | 36060 ft | 424 kts | 322° |
| 2026-04-21 11:16 | 47.26185 | 9.26227 | 36083 ft | 426 kts | 322° |
| 2026-04-21 11:17 | 47.31072 | 9.21264 | 36076 ft | 427 kts | 322° |
| 2026-04-21 11:17 | 47.35956 | 9.16294 | 36074 ft | 426 kts | 322° |
| 2026-04-21 11:18 | 47.40802 | 9.11353 | 36085 ft | 421 kts | 322° |
| 2026-04-21 11:18 | 47.45605 | 9.06443 | 36098 ft | 420 kts | 322° |
| 2026-04-21 11:19 | 47.50407 | 9.01521 | 36103 ft | 420 kts | 322° |
| 2026-04-21 11:19 | 47.55217 | 8.96580 | 36099 ft | 422 kts | 322° |
| 2026-04-21 11:20 | 47.60044 | 8.91610 | 36091 ft | 423 kts | 322° |
| 2026-04-21 11:20 | 47.64882 | 8.86618 | 36108 ft | 424 kts | 322° |
| 2026-04-21 11:21 | 47.69738 | 8.81597 | 36093 ft | 426 kts | 322° |
| 2026-04-21 11:21 | 47.74613 | 8.76544 | 36104 ft | 428 kts | 322° |
| 2026-04-21 11:22 | 47.79495 | 8.71471 | 36106 ft | 429 kts | 322° |
| 2026-04-21 11:22 | 47.84391 | 8.66373 | 36100 ft | 430 kts | 322° |
| 2026-04-21 11:23 | 47.89289 | 8.61260 | 36097 ft | 430 kts | 322° |
| 2026-04-21 11:23 | 47.94199 | 8.56122 | 36121 ft | 432 kts | 322° |
| 2026-04-21 11:24 | 47.99126 | 8.50954 | 36114 ft | 433 kts | 322° |
| 2026-04-21 11:24 | 48.04052 | 8.45776 | 36111 ft | 432 kts | 322° |
| 2026-04-21 11:25 | 48.08961 | 8.40602 | 36118 ft | 432 kts | 322° |
| 2026-04-21 11:25 | 48.13872 | 8.35414 | 36139 ft | 432 kts | 323° |
| 2026-04-21 11:26 | 48.18821 | 8.30293 | 36127 ft | 434 kts | 325° |
| 2026-04-21 11:26 | 48.23970 | 8.25482 | 36127 ft | 436 kts | 326° |
| 2026-04-21 11:27 | 48.29147 | 8.20737 | 36129 ft | 437 kts | 326° |
| 2026-04-21 11:27 | 48.34288 | 8.15976 | 36127 ft | 437 kts | 326° |
| 2026-04-21 11:28 | 48.39460 | 8.11139 | 36130 ft | 438 kts | 326° |
| 2026-04-21 11:28 | 48.44632 | 8.06280 | 36135 ft | 439 kts | 326° |
| 2026-04-21 11:29 | 48.49806 | 8.01404 | 36135 ft | 439 kts | 326° |
| 2026-04-21 11:29 | 48.54981 | 7.96515 | 36154 ft | 439 kts | 326° |
| 2026-04-21 11:30 | 48.60158 | 7.91614 | 36155 ft | 439 kts | 326° |
| 2026-04-21 11:30 | 48.65333 | 7.86704 | 36175 ft | 439 kts | 326° |
| 2026-04-21 11:31 | 48.70508 | 7.81781 | 36171 ft | 438 kts | 326° |
| 2026-04-21 11:31 | 48.75660 | 7.76867 | 36175 ft | 437 kts | 326° |
| 2026-04-21 11:32 | 48.80810 | 7.71944 | 36173 ft | 437 kts | 326° |
| 2026-04-21 11:32 | 48.85959 | 7.67009 | 36183 ft | 438 kts | 326° |
| 2026-04-21 11:33 | 48.91114 | 7.62056 | 36177 ft | 439 kts | 326° |
| 2026-04-21 11:33 | 48.96275 | 7.57085 | 36184 ft | 439 kts | 326° |
| 2026-04-21 11:34 | 49.01432 | 7.52106 | 36175 ft | 439 kts | 326° |
| 2026-04-21 11:34 | 49.06592 | 7.47112 | 36195 ft | 439 kts | 326° |
| 2026-04-21 11:35 | 49.11756 | 7.42101 | 36186 ft | 441 kts | 326° |
| 2026-04-21 11:35 | 49.16934 | 7.37064 | 36185 ft | 441 kts | 326° |
| 2026-04-21 11:36 | 49.22078 | 7.32047 | 36186 ft | 442 kts | 326° |
| 2026-04-21 11:36 | 49.27293 | 7.26949 | 36179 ft | 442 kts | 326° |
| 2026-04-21 11:37 | 49.32473 | 7.21871 | 36196 ft | 443 kts | 326° |
| 2026-04-21 11:37 | 49.37669 | 7.16765 | 36195 ft | 444 kts | 326° |
| 2026-04-21 11:38 | 49.42858 | 7.11653 | 36171 ft | 442 kts | 326° |
| 2026-04-21 11:38 | 49.48027 | 7.06548 | 36184 ft | 441 kts | 326° |
| 2026-04-21 11:39 | 49.53184 | 7.01441 | 36183 ft | 441 kts | 326° |
| 2026-04-21 11:39 | 49.58354 | 6.96309 | 36194 ft | 443 kts | 326° |
| 2026-04-21 11:40 | 49.63553 | 6.91134 | 36178 ft | 445 kts | 326° |
| 2026-04-21 11:40 | 49.68757 | 6.85941 | 36181 ft | 446 kts | 326° |
| 2026-04-21 11:41 | 49.73962 | 6.80733 | 36183 ft | 446 kts | 326° |
| 2026-04-21 11:41 | 49.79169 | 6.75511 | 36172 ft | 445 kts | 326° |
| 2026-04-21 11:42 | 49.84364 | 6.70286 | 36184 ft | 445 kts | 326° |
| 2026-04-21 11:42 | 49.89564 | 6.65042 | 36188 ft | 446 kts | 326° |
| 2026-04-21 11:43 | 49.94762 | 6.59788 | 36187 ft | 446 kts | 326° |
| 2026-04-21 11:43 | 49.99921 | 6.54547 | 36187 ft | 446 kts | 326° |
| 2026-04-21 11:44 | 50.05083 | 6.49177 | 36187 ft | 448 kts | 326° |
| 2026-04-21 11:44 | 50.10252 | 6.43756 | 36204 ft | 449 kts | 326° |
| 2026-04-21 11:45 | 50.15431 | 6.38319 | 36191 ft | 448 kts | 326° |
| 2026-04-21 11:45 | 50.20597 | 6.32891 | 36199 ft | 447 kts | 326° |
| 2026-04-21 11:46 | 50.25753 | 6.27461 | 36220 ft | 447 kts | 326° |
| 2026-04-21 11:46 | 50.30921 | 6.22005 | 36221 ft | 449 kts | 326° |
| 2026-04-21 11:47 | 50.36096 | 6.16526 | 36229 ft | 449 kts | 326° |
| 2026-04-21 11:47 | 50.41274 | 6.11030 | 36224 ft | 450 kts | 326° |
| 2026-04-21 11:48 | 50.46452 | 6.05518 | 36239 ft | 450 kts | 326° |
| 2026-04-21 11:48 | 50.51632 | 5.99989 | 36230 ft | 450 kts | 326° |
| 2026-04-21 11:49 | 50.56813 | 5.94445 | 36245 ft | 451 kts | 326° |
| 2026-04-21 11:49 | 50.62002 | 5.88877 | 36249 ft | 451 kts | 326° |
| 2026-04-21 11:50 | 50.67190 | 5.83295 | 36261 ft | 452 kts | 326° |
| 2026-04-21 11:50 | 50.72378 | 5.77697 | 36261 ft | 451 kts | 326° |
| 2026-04-21 11:51 | 50.77556 | 5.72095 | 36266 ft | 453 kts | 326° |
| 2026-04-21 11:51 | 50.82761 | 5.66449 | 36263 ft | 454 kts | 326° |
| 2026-04-21 11:52 | 50.87964 | 5.60789 | 36262 ft | 452 kts | 326° |
| 2026-04-21 11:52 | 50.93086 | 5.55201 | 36262 ft | 450 kts | 325° |
| 2026-04-21 11:53 | 50.98255 | 5.49547 | 36271 ft | 451 kts | 325° |
| 2026-04-21 11:53 | 51.03451 | 5.43848 | 36277 ft | 451 kts | 325° |
| 2026-04-21 11:54 | 51.08581 | 5.38206 | 36280 ft | 451 kts | 325° |
| 2026-04-21 11:54 | 51.13740 | 5.32516 | 36276 ft | 451 kts | 325° |
| 2026-04-21 11:55 | 51.18897 | 5.26813 | 36277 ft | 451 kts | 325° |
| 2026-04-21 11:55 | 51.24061 | 5.21086 | 36279 ft | 452 kts | 325° |
| 2026-04-21 11:56 | 51.29219 | 5.15349 | 36285 ft | 452 kts | 325° |
| 2026-04-21 11:56 | 51.34374 | 5.09600 | 36288 ft | 452 kts | 325° |
| 2026-04-21 11:57 | 51.39533 | 5.03829 | 36286 ft | 452 kts | 325° |
| 2026-04-21 11:57 | 51.44686 | 4.98050 | 36292 ft | 452 kts | 325° |
| 2026-04-21 11:58 | 51.49777 | 4.92324 | 36283 ft | 453 kts | 325° |
| 2026-04-21 11:58 | 51.55008 | 4.86425 | 36297 ft | 454 kts | 325° |
| 2026-04-21 11:59 | 51.59408 | 4.81806 | 36290 ft | 455 kts | 329° |
| 2026-04-21 11:59 | 51.64845 | 4.76602 | 36291 ft | 454 kts | 329° |
| 2026-04-21 12:00 | 51.70274 | 4.71440 | 36291 ft | 453 kts | 329° |
| 2026-04-21 12:00 | 51.75691 | 4.66214 | 36303 ft | 454 kts | 329° |
| 2026-04-21 12:01 | 51.81087 | 4.60955 | 36320 ft | 455 kts | 329° |
| 2026-04-21 12:01 | 51.86517 | 4.55638 | 36320 ft | 455 kts | 329° |
| 2026-04-21 12:02 | 51.94642 | 4.47654 | 36325 ft | 456 kts | 329° |
| 2026-04-21 12:03 | 52.00069 | 4.42304 | 36311 ft | 457 kts | 329° |
| 2026-04-21 12:03 | 52.05502 | 4.36933 | 36320 ft | 458 kts | 329° |
| 2026-04-21 12:04 | 52.10899 | 4.31582 | 36323 ft | 457 kts | 329° |
| 2026-04-21 12:04 | 52.16364 | 4.26149 | 36333 ft | 458 kts | 329° |
| 2026-04-21 12:05 | 52.21799 | 4.20730 | 36337 ft | 458 kts | 329° |
| 2026-04-21 12:05 | 52.27184 | 4.15344 | 36335 ft | 458 kts | 329° |
| 2026-04-21 12:06 | 52.32623 | 4.09888 | 36352 ft | 461 kts | 329° |
| 2026-04-21 12:06 | 52.38077 | 4.04402 | 36343 ft | 459 kts | 329° |
| 2026-04-21 12:07 | 52.43493 | 3.98937 | 36353 ft | 457 kts | 329° |
| 2026-04-21 12:07 | 52.48909 | 3.93458 | 36345 ft | 459 kts | 329° |
| 2026-04-21 12:08 | 52.54329 | 3.87957 | 36362 ft | 457 kts | 329° |
| 2026-04-21 12:08 | 52.59729 | 3.82461 | 36363 ft | 456 kts | 329° |
| 2026-04-21 12:09 | 52.65131 | 3.76949 | 36365 ft | 459 kts | 329° |
| 2026-04-21 12:09 | 52.70561 | 3.71388 | 36373 ft | 457 kts | 329° |
| 2026-04-21 12:10 | 52.75956 | 3.65849 | 36370 ft | 456 kts | 330° |
| 2026-04-21 12:10 | 52.81368 | 3.60277 | 36380 ft | 460 kts | 329° |
| 2026-04-21 12:11 | 52.86792 | 3.54670 | 36385 ft | 459 kts | 329° |
| 2026-04-21 12:11 | 52.92178 | 3.49090 | 36379 ft | 456 kts | 329° |
| 2026-04-21 12:12 | 52.97591 | 3.43466 | 36379 ft | 460 kts | 329° |
| 2026-04-21 12:12 | 53.03025 | 3.37803 | 36383 ft | 461 kts | 329° |
| 2026-04-21 12:13 | 53.08200 | 3.31548 | 36365 ft | 464 kts | 313° |
| 2026-04-21 12:13 | 53.10079 | 3.27181 | 36407 ft | 466 kts | 300° |
| 2026-04-21 12:13 | 53.11342 | 3.22272 | 36386 ft | 471 kts | 289° |
| 2026-04-21 12:14 | 53.12753 | 3.11616 | 36395 ft | 472 kts | 284° |
| 2026-04-21 12:14 | 53.14050 | 3.00892 | 36395 ft | 471 kts | 283° |
| 2026-04-21 12:15 | 53.15407 | 2.90238 | 36409 ft | 469 kts | 283° |
| 2026-04-21 12:15 | 53.16791 | 2.79617 | 36412 ft | 469 kts | 284° |
| 2026-04-21 12:16 | 53.18172 | 2.69005 | 36411 ft | 469 kts | 284° |
| 2026-04-21 12:16 | 53.19538 | 2.58367 | 36405 ft | 469 kts | 283° |
| 2026-04-21 12:17 | 53.21401 | 2.48058 | 36410 ft | 460 kts | 297° |
| 2026-04-21 12:17 | 53.24720 | 2.38947 | 36421 ft | 462 kts | 305° |
| 2026-04-21 12:18 | 53.28180 | 2.29844 | 36408 ft | 467 kts | 302° |
| 2026-04-21 12:18 | 53.31657 | 2.20666 | 36425 ft | 467 kts | 301° |
| 2026-04-21 12:19 | 53.35115 | 2.11535 | 36423 ft | 463 kts | 304° |
| 2026-04-21 12:19 | 53.38559 | 2.02455 | 36428 ft | 460 kts | 304° |
| 2026-04-21 12:20 | 53.41981 | 1.93434 | 36421 ft | 460 kts | 301° |
| 2026-04-21 12:20 | 53.45355 | 1.84237 | 36440 ft | 465 kts | 303° |
| 2026-04-21 12:21 | 53.48796 | 1.75005 | 36438 ft | 466 kts | 303° |
| 2026-04-21 12:21 | 53.52213 | 1.65800 | 36428 ft | 463 kts | 303° |
| 2026-04-21 12:22 | 53.55620 | 1.56621 | 36448 ft | 461 kts | 303° |
| 2026-04-21 12:22 | 53.58954 | 1.47427 | 36437 ft | 460 kts | 302° |
| 2026-04-21 12:23 | 53.62286 | 1.38409 | 36434 ft | 452 kts | 303° |
| 2026-04-21 12:23 | 53.65554 | 1.29351 | 36445 ft | 453 kts | 303° |
| 2026-04-21 12:24 | 53.68842 | 1.20200 | 36451 ft | 458 kts | 302° |
| 2026-04-21 12:24 | 53.72211 | 1.11002 | 36453 ft | 460 kts | 303° |
| 2026-04-21 12:25 | 53.75545 | 1.01826 | 36444 ft | 458 kts | 302° |
| 2026-04-21 12:25 | 53.78840 | 0.92623 | 36441 ft | 459 kts | 302° |
| 2026-04-21 12:26 | 53.82148 | 0.83407 | 36445 ft | 457 kts | 302° |
| 2026-04-21 12:26 | 53.85416 | 0.74234 | 36454 ft | 455 kts | 302° |
| 2026-04-21 12:27 | 53.88678 | 0.65044 | 36452 ft | 455 kts | 302° |
| 2026-04-21 12:27 | 53.91922 | 0.55796 | 36458 ft | 457 kts | 301° |
| 2026-04-21 12:28 | 53.95206 | 0.46525 | 36463 ft | 458 kts | 302° |
| 2026-04-21 12:28 | 53.98467 | 0.37285 | 36459 ft | 454 kts | 302° |
| 2026-04-21 12:29 | 54.01690 | 0.28053 | 36465 ft | 457 kts | 301° |
| 2026-04-21 12:29 | 54.05477 | 0.19361 | 36484 ft | 460 kts | 312° |
| 2026-04-21 12:30 | 54.09743 | 0.11253 | 36470 ft | 460 kts | 312° |
| 2026-04-21 12:30 | 54.14014 | 0.03118 | 36488 ft | 459 kts | 312° |
| 2026-04-21 12:31 | 54.18213 | -0.04986 | 36469 ft | 451 kts | 311° |
| 2026-04-21 12:31 | 54.22353 | -0.13036 | 36486 ft | 452 kts | 311° |
| 2026-04-21 12:32 | 54.26502 | -0.21143 | 36486 ft | 457 kts | 311° |
| 2026-04-21 12:32 | 54.30698 | -0.29375 | 36489 ft | 459 kts | 311° |
| 2026-04-21 12:33 | 54.34901 | -0.37637 | 36486 ft | 461 kts | 311° |
| 2026-04-21 12:33 | 54.39127 | -0.45977 | 36397 ft | 465 kts | 311° |
| 2026-04-21 12:33 | 54.41257 | -0.50192 | 36114 ft | 468 kts | 311° |
| 2026-04-21 12:34 | 54.43377 | -0.54396 | 35833 ft | 461 kts | 311° |
| 2026-04-21 12:34 | 54.45460 | -0.58534 | 35560 ft | 455 kts | 311° |
| 2026-04-21 12:34 | 54.47488 | -0.62565 | 35299 ft | 452 kts | 310° |
| 2026-04-21 12:34 | 54.49546 | -0.66666 | 35045 ft | 456 kts | 310° |
| 2026-04-21 12:35 | 54.51632 | -0.70826 | 34803 ft | 460 kts | 310° |
| 2026-04-21 12:35 | 54.53728 | -0.75018 | 34558 ft | 463 kts | 310° |
| 2026-04-21 12:35 | 54.55823 | -0.79210 | 34270 ft | 461 kts | 310° |
| 2026-04-21 12:35 | 54.57905 | -0.83386 | 33957 ft | 459 kts | 310° |
| 2026-04-21 12:36 | 54.59993 | -0.87583 | 33661 ft | 462 kts | 310° |
| 2026-04-21 12:36 | 54.62092 | -0.91808 | 33366 ft | 466 kts | 310° |
| 2026-04-21 12:36 | 54.64212 | -0.96083 | 33071 ft | 469 kts | 311° |
| 2026-04-21 12:36 | 54.66340 | -1.00381 | 32783 ft | 472 kts | 310° |
| 2026-04-21 12:37 | 54.68478 | -1.04706 | 32496 ft | 475 kts | 311° |
| 2026-04-21 12:37 | 54.70621 | -1.09052 | 32206 ft | 475 kts | 310° |
| 2026-04-21 12:37 | 54.72765 | -1.13410 | 31922 ft | 475 kts | 310° |
| 2026-04-21 12:37 | 54.74905 | -1.17762 | 31663 ft | 476 kts | 310° |
| 2026-04-21 12:38 | 54.77056 | -1.22142 | 31381 ft | 479 kts | 311° |
| 2026-04-21 12:38 | 54.79214 | -1.26553 | 31097 ft | 482 kts | 311° |
| 2026-04-21 12:38 | 54.81391 | -1.31007 | 30829 ft | 485 kts | 311° |
| 2026-04-21 12:38 | 54.83575 | -1.35468 | 30542 ft | 487 kts | 311° |
| 2026-04-21 12:39 | 54.85761 | -1.39951 | 30205 ft | 486 kts | 311° |
| 2026-04-21 12:39 | 54.87948 | -1.44469 | 29842 ft | 490 kts | 311° |
| 2026-04-21 12:39 | 54.90146 | -1.48994 | 29503 ft | 492 kts | 311° |
| 2026-04-21 12:39 | 54.92354 | -1.53532 | 29165 ft | 490 kts | 311° |
| 2026-04-21 12:40 | 54.94548 | -1.58072 | 28825 ft | 489 kts | 310° |
| 2026-04-21 12:40 | 54.96708 | -1.62565 | 28494 ft | 492 kts | 311° |
| 2026-04-21 12:40 | 54.98915 | -1.67151 | 28166 ft | 496 kts | 311° |
| 2026-04-21 12:40 | 55.01135 | -1.71753 | 27842 ft | 499 kts | 311° |
| 2026-04-21 12:41 | 55.03368 | -1.76404 | 27523 ft | 497 kts | 311° |
| 2026-04-21 12:41 | 55.05543 | -1.80949 | 27176 ft | 478 kts | 311° |
| 2026-04-21 12:41 | 55.07640 | -1.85336 | 26747 ft | 466 kts | 311° |
| 2026-04-21 12:41 | 55.09696 | -1.89635 | 26299 ft | 455 kts | 311° |
| 2026-04-21 12:42 | 55.11709 | -1.93857 | 25850 ft | 450 kts | 311° |
| 2026-04-21 12:42 | 55.13577 | -1.98233 | 25396 ft | 450 kts | 304° |
| 2026-04-21 12:42 | 55.15186 | -2.02915 | 24961 ft | 448 kts | 300° |
| 2026-04-21 12:42 | 55.16685 | -2.07686 | 24527 ft | 447 kts | 299° |
| 2026-04-21 12:43 | 55.18149 | -2.12460 | 24094 ft | 445 kts | 300° |
| 2026-04-21 12:43 | 55.19618 | -2.17176 | 23580 ft | 437 kts | 300° |
| 2026-04-21 12:43 | 55.21085 | -2.21807 | 23072 ft | 431 kts | 301° |
| 2026-04-21 12:43 | 55.22554 | -2.26381 | 22577 ft | 431 kts | 301° |
| 2026-04-21 12:44 | 55.24038 | -2.30958 | 22093 ft | 432 kts | 301° |
| 2026-04-21 12:44 | 55.25520 | -2.35514 | 21606 ft | 427 kts | 301° |
| 2026-04-21 12:44 | 55.26975 | -2.39990 | 21135 ft | 420 kts | 301° |
| 2026-04-21 12:44 | 55.28411 | -2.44417 | 20668 ft | 414 kts | 301° |
| 2026-04-21 12:45 | 55.29866 | -2.48754 | 20217 ft | 412 kts | 302° |
| 2026-04-21 12:45 | 55.31318 | -2.53078 | 19773 ft | 410 kts | 302° |
| 2026-04-21 12:45 | 55.32753 | -2.57385 | 19336 ft | 408 kts | 302° |
| 2026-04-21 12:45 | 55.34177 | -2.61680 | 18909 ft | 406 kts | 302° |
| 2026-04-21 12:46 | 55.35563 | -2.65992 | 18423 ft | 405 kts | 300° |
| 2026-04-21 12:46 | 55.36910 | -2.70337 | 17939 ft | 404 kts | 300° |
| 2026-04-21 12:46 | 55.38246 | -2.74665 | 17457 ft | 401 kts | 299° |
| 2026-04-21 12:46 | 55.39575 | -2.78968 | 16988 ft | 400 kts | 299° |
| 2026-04-21 12:47 | 55.40907 | -2.83268 | 16423 ft | 401 kts | 299° |
| 2026-04-21 12:47 | 55.41794 | -2.86129 | 16053 ft | 401 kts | 299° |
| 2026-04-21 12:47 | 55.43128 | -2.90424 | 15507 ft | 400 kts | 299° |
| 2026-04-21 12:47 | 55.44458 | -2.94704 | 14970 ft | 397 kts | 299° |
| 2026-04-21 12:48 | 55.45779 | -2.98950 | 14428 ft | 394 kts | 299° |
| 2026-04-21 12:48 | 55.47089 | -3.03152 | 13960 ft | 387 kts | 299° |
| 2026-04-21 12:48 | 55.48376 | -3.07269 | 13554 ft | 379 kts | 299° |
| 2026-04-21 12:48 | 55.49632 | -3.11278 | 13114 ft | 367 kts | 299° |
| 2026-04-21 12:49 | 55.50847 | -3.15149 | 12657 ft | 357 kts | 299° |
| 2026-04-21 12:49 | 55.52037 | -3.18935 | 12200 ft | 349 kts | 299° |
| 2026-04-21 12:49 | 55.53206 | -3.22654 | 11734 ft | 343 kts | 299° |
| 2026-04-21 12:49 | 55.54354 | -3.26312 | 11285 ft | 338 kts | 299° |
| 2026-04-21 12:50 | 55.55482 | -3.29914 | 10849 ft | 333 kts | 299° |
| 2026-04-21 12:50 | 55.56592 | -3.33459 | 10389 ft | 326 kts | 299° |
| 2026-04-21 12:50 | 55.57659 | -3.36878 | 10112 ft | 311 kts | 299° |
| 2026-04-21 12:50 | 55.58692 | -3.40186 | 9725 ft | 305 kts | 299° |
| 2026-04-21 12:51 | 55.59707 | -3.43444 | 9391 ft | 299 kts | 299° |
| 2026-04-21 12:51 | 55.60697 | -3.46609 | 9005 ft | 290 kts | 299° |
| 2026-04-21 12:51 | 55.61652 | -3.49674 | 8623 ft | 280 kts | 299° |
| 2026-04-21 12:51 | 55.62582 | -3.52659 | 8243 ft | 275 kts | 299° |
| 2026-04-21 12:52 | 55.63505 | -3.55621 | 7869 ft | 274 kts | 299° |
| 2026-04-21 12:52 | 55.64438 | -3.58557 | 7465 ft | 273 kts | 303° |
| 2026-04-21 12:52 | 55.65702 | -3.61032 | 7094 ft | 270 kts | 322° |
| 2026-04-21 12:52 | 55.67151 | -3.63127 | 6722 ft | 268 kts | 324° |
| 2026-04-21 12:53 | 55.68608 | -3.65187 | 6336 ft | 268 kts | 324° |
| 2026-04-21 12:53 | 55.70059 | -3.67248 | 5937 ft | 267 kts | 324° |
| 2026-04-21 12:53 | 55.71503 | -3.69310 | 5552 ft | 265 kts | 324° |
| 2026-04-21 12:53 | 55.72928 | -3.71359 | 5163 ft | 263 kts | 324° |
| 2026-04-21 12:54 | 55.74336 | -3.73410 | 4759 ft | 260 kts | 324° |
| 2026-04-21 12:54 | 55.75721 | -3.75440 | 4360 ft | 256 kts | 324° |
| 2026-04-21 12:54 | 55.77072 | -3.77420 | 3998 ft | 246 kts | 328° |
| 2026-04-21 12:54 | 55.78548 | -3.78662 | 3944 ft | 227 kts | 354° |
| 2026-04-21 12:55 | 55.79976 | -3.78284 | 3949 ft | 200 kts | 38° |
| 2026-04-21 12:55 | 55.80963 | -3.76618 | 3953 ft | 198 kts | 51° |
| 2026-04-21 12:55 | 55.81900 | -3.74783 | 3951 ft | 201 kts | 53° |
| 2026-04-21 12:55 | 55.82775 | -3.72870 | 3934 ft | 198 kts | 55° |
| 2026-04-21 12:56 | 55.83592 | -3.70917 | 3931 ft | 195 kts | 58° |
| 2026-04-21 12:56 | 55.84321 | -3.68920 | 3931 ft | 192 kts | 61° |
| 2026-04-21 12:56 | 55.85012 | -3.66902 | 3846 ft | 191 kts | 62° |
| 2026-04-21 12:56 | 55.85703 | -3.64849 | 3604 ft | 192 kts | 63° |
| 2026-04-21 12:57 | 55.86377 | -3.62845 | 3336 ft | 184 kts | 62° |
| 2026-04-21 12:57 | 55.87020 | -3.60930 | 3096 ft | 176 kts | 62° |
| 2026-04-21 12:57 | 55.87635 | -3.59098 | 2856 ft | 170 kts | 61° |
| 2026-04-21 12:57 | 55.88229 | -3.57329 | 2602 ft | 161 kts | 61° |
| 2026-04-21 12:58 | 55.88779 | -3.55696 | 2420 ft | 145 kts | 62° |
| 2026-04-21 12:58 | 55.89272 | -3.54229 | 2206 ft | 132 kts | 62° |
| 2026-04-21 12:58 | 55.89736 | -3.52851 | 2021 ft | 126 kts | 63° |
| 2026-04-21 12:58 | 55.90181 | -3.51526 | 1862 ft | 122 kts | 62° |
| 2026-04-21 12:59 | 55.90607 | -3.50258 | 1688 ft | 122 kts | 61° |
| 2026-04-21 12:59 | 55.91059 | -3.48917 | 1523 ft | 129 kts | 60° |
| 2026-04-21 12:59 | 55.91531 | -3.47515 | 1346 ft | 129 kts | 61° |
| 2026-04-21 12:59 | 55.91989 | -3.46162 | 1139 ft | 127 kts | 62° |
| 2026-04-21 13:00 | 55.92432 | -3.44841 | 955 ft | 124 kts | 60° |
| 2026-04-21 13:00 | 55.92861 | -3.43546 | 797 ft | 120 kts | 61° |
| 2026-04-21 13:00 | 55.93272 | -3.42273 | 643 ft | 118 kts | 60° |
| 2026-04-21 13:00 | 55.93713 | -3.41006 | 448 ft | 121 kts | 59° |
| 2026-04-21 13:01 | 55.94148 | -3.39716 | 293 ft | 122 kts | 58° |
| 2026-04-21 13:01 | 55.94591 | -3.38456 | 126 ft | 118 kts | 58° |
| 2026-04-21 13:01 | 55.94976 | -3.37326 | 106 ft | 85 kts | 58° |
| 2026-04-21 13:01 | 55.95204 | -3.36662 | 106 ft | 34 kts | 59° |
| 2026-04-21 13:02 | 55.95252 | -3.36425 | 100 ft | 14 kts | 123° |
| 2026-04-21 13:02 | 55.95210 | -3.36359 | 101 ft | 8 kts | 146° |
| 2026-04-21 13:02 | 55.95128 | -3.36314 | 103 ft | 10 kts | 201° |
| 2026-04-21 13:03 | 55.95087 | -3.36407 | 106 ft | 10 kts | 244° |
| 2026-04-21 13:03 | 55.95049 | -3.36527 | 105 ft | 13 kts | 238° |
| 2026-04-21 13:03 | 55.94995 | -3.36678 | 106 ft | 16 kts | 238° |
| 2026-04-21 13:03 | 55.94945 | -3.36815 | 105 ft | 12 kts | 217° |
| 2026-04-21 13:04 | 55.94869 | -3.36780 | 104 ft | 11 kts | 164° |
| 2026-04-21 13:04 | 55.94791 | -3.36764 | 104 ft | 11 kts | 165° |
| 2026-04-21 13:04 | 55.94716 | -3.36735 | 105 ft | 11 kts | 180° |
| 2026-04-21 13:04 | 55.94641 | -3.36733 | 106 ft | 11 kts | 179° |
| 2026-04-21 13:05 | 55.94613 | -3.36672 | 105 ft | 7 kts | 90° |
| 2026-04-21 13:05 | 55.94613 | -3.36623 | 105 ft | 0 kts | 88° |
| 2026-04-21 13:07 | 55.94613 | -3.36624 | 105 ft | 0 kts | 88° |
| 2026-04-21 13:18 | 55.94613 | -3.36625 | 105 ft | 0 kts | 88° |